createdAt,value
2019-03-16T00:01:40.472Z,0.30
2019-03-16T00:04:08.691Z,0.45
2019-03-16T00:06:36.955Z,0.30
2019-03-16T00:09:06.625Z,0.30
2019-03-16T00:11:34.874Z,0.17
2019-03-16T00:14:03.122Z,0.33
2019-03-16T00:16:31.382Z,0.30
2019-03-16T00:18:59.722Z,0.25
2019-03-16T00:21:27.968Z,0.40
2019-03-16T00:23:56.205Z,0.20
2019-03-16T00:26:24.428Z,0.28
2019-03-16T00:28:52.672Z,0.40
2019-03-16T00:31:20.907Z,0.40
2019-03-16T00:33:49.152Z,0.50
2019-03-16T00:36:17.388Z,0.20
2019-03-16T00:38:45.635Z,0.62
2019-03-16T00:41:13.849Z,0.45
2019-03-16T00:43:42.115Z,0.53
2019-03-16T00:46:10.334Z,0.40
2019-03-16T00:48:38.590Z,0.23
2019-03-16T00:51:06.835Z,0.40
2019-03-16T00:53:35.079Z,0.40
2019-03-16T00:56:03.318Z,0.60
2019-03-16T00:58:31.568Z,0.45
2019-03-16T01:00:59.855Z,0.30
2019-03-16T01:03:28.101Z,0.80
2019-03-16T01:05:56.335Z,0.40
2019-03-16T01:08:24.557Z,0.30
2019-03-16T01:10:52.855Z,0.30
2019-03-16T01:13:21.114Z,0.60
2019-03-16T01:15:49.337Z,0.50
2019-03-16T01:18:17.666Z,0.30
2019-03-16T01:20:45.949Z,0.20
2019-03-16T01:23:17.378Z,0.50
2019-03-16T01:25:44.133Z,0.40
2019-03-16T01:28:12.398Z,0.45
2019-03-16T01:30:40.624Z,0.40
2019-03-16T01:33:08.877Z,0.30
2019-03-16T01:35:37.183Z,0.40
2019-03-16T01:38:05.484Z,0.40
2019-03-16T01:40:33.763Z,0.40
2019-03-16T01:43:01.970Z,0.47
2019-03-16T01:45:30.217Z,0.33
2019-03-16T01:47:58.467Z,0.50
2019-03-16T01:50:26.702Z,0.30
2019-03-16T01:52:54.928Z,0.33
2019-03-16T01:55:23.180Z,0.45
2019-03-16T01:57:51.408Z,0.50
2019-03-16T02:00:19.656Z,0.23
2019-03-16T02:02:55.091Z,0.40
2019-03-16T02:05:17.871Z,0.47
2019-03-16T02:07:46.110Z,0.40
2019-03-16T02:10:14.363Z,0.35
2019-03-16T02:12:42.601Z,0.50
2019-03-16T02:15:10.932Z,0.20
2019-03-16T02:17:39.153Z,0.50
2019-03-16T02:20:08.656Z,0.50
2019-03-16T02:22:36.993Z,0.37
2019-03-16T02:25:06.437Z,0.40
2019-03-16T02:27:34.678Z,0.20
2019-03-16T02:30:02.938Z,0.55
2019-03-16T02:32:31.326Z,0.40
2019-03-16T02:34:59.582Z,0.33
2019-03-16T02:37:27.813Z,0.53
2019-03-16T02:39:56.058Z,0.30
2019-03-16T02:42:24.317Z,0.25
2019-03-16T02:44:52.579Z,0.40
2019-03-16T02:47:20.841Z,0.40
2019-03-16T02:49:49.083Z,0.30
2019-03-16T02:52:17.320Z,0.30
2019-03-16T02:54:45.645Z,0.50
2019-03-16T02:57:13.869Z,0.33
2019-03-16T02:59:42.108Z,0.30
2019-03-16T03:02:10.371Z,0.15
2019-03-16T03:04:38.587Z,0.30
2019-03-16T03:07:06.816Z,0.30
2019-03-16T03:09:35.060Z,0.20
2019-03-16T03:12:03.371Z,0.20
2019-03-16T03:14:31.628Z,0.20
2019-03-16T03:16:59.841Z,0.20
2019-03-16T03:19:28.095Z,0.20
2019-03-16T03:21:56.330Z,0.20
2019-03-16T03:24:24.553Z,0.40
2019-03-16T03:26:52.836Z,0.50
2019-03-16T03:29:21.049Z,0.40
2019-03-16T03:31:49.276Z,0.33
2019-03-16T03:34:17.591Z,0.53
2019-03-16T03:36:45.834Z,0.80
2019-03-16T03:39:14.089Z,0.60
2019-03-16T03:41:42.351Z,0.23
2019-03-16T03:44:10.613Z,0.68
2019-03-16T03:46:38.911Z,0.50
2019-03-16T03:49:07.154Z,0.65
2019-03-16T03:51:35.402Z,0.68
2019-03-16T03:54:03.648Z,0.90
2019-03-16T03:56:31.874Z,0.90
2019-03-16T03:59:00.116Z,0.68
2019-03-16T04:01:28.361Z,1.00
2019-03-16T04:04:13.779Z,1.67
2019-03-16T04:06:26.556Z,1.05
2019-03-16T04:08:54.809Z,0.80
2019-03-16T04:11:23.061Z,0.62
2019-03-16T04:13:51.336Z,0.72
2019-03-16T04:16:19.584Z,0.70
2019-03-16T04:18:51.477Z,0.70
2019-03-16T04:21:17.763Z,0.70
2019-03-16T04:23:46.008Z,0.78
2019-03-16T04:26:14.258Z,0.50
2019-03-16T04:28:42.493Z,0.50
2019-03-16T04:31:10.884Z,0.70
2019-03-16T04:33:39.196Z,0.65
2019-03-16T04:36:07.477Z,0.47
2019-03-16T04:38:35.700Z,0.70
2019-03-16T04:41:03.945Z,0.70
2019-03-16T04:43:32.167Z,0.72
2019-03-16T04:46:00.476Z,0.70
2019-03-16T04:48:28.732Z,0.80
2019-03-16T04:50:56.961Z,0.60
2019-03-16T04:53:25.209Z,0.70
2019-03-16T04:55:53.432Z,0.72
2019-03-16T04:58:21.657Z,0.80
2019-03-16T05:00:49.912Z,0.65
2019-03-16T05:03:18.136Z,0.50
2019-03-16T05:05:46.381Z,0.50
2019-03-16T05:08:14.602Z,0.40
2019-03-16T05:10:42.835Z,0.40
2019-03-16T05:13:11.121Z,0.70
2019-03-16T05:15:39.346Z,0.35
2019-03-16T05:18:07.581Z,0.30
2019-03-16T05:20:35.811Z,0.53
2019-03-16T05:23:04.043Z,0.55
2019-03-16T05:25:32.305Z,0.78
2019-03-16T05:28:00.528Z,0.40
2019-03-16T05:30:28.771Z,0.40
2019-03-16T05:32:57.020Z,0.50
2019-03-16T05:35:25.234Z,0.60
2019-03-16T05:37:53.510Z,0.62
2019-03-16T05:40:21.736Z,0.53
2019-03-16T05:42:50.000Z,0.50
2019-03-16T05:45:18.254Z,0.35
2019-03-16T05:47:46.500Z,0.42
2019-03-16T05:50:15.012Z,0.50
2019-03-16T05:52:43.255Z,0.33
2019-03-16T05:55:11.490Z,0.65
2019-03-16T05:57:39.716Z,0.50
2019-03-16T06:00:14.889Z,0.57
2019-03-16T06:02:43.120Z,0.50
2019-03-16T06:05:11.546Z,0.60
2019-03-16T06:07:39.964Z,0.40
2019-03-16T06:10:09.629Z,0.82
2019-03-16T06:12:37.890Z,0.40
2019-03-16T06:15:08.453Z,0.53
2019-03-16T06:17:36.694Z,0.70
2019-03-16T06:20:11.076Z,0.50
2019-03-16T06:22:39.310Z,0.72
2019-03-16T06:25:08.597Z,0.60
2019-03-16T06:27:36.850Z,0.70
2019-03-16T06:30:10.776Z,0.90
2019-03-16T06:32:39.289Z,0.75
2019-03-16T06:35:07.662Z,0.78
2019-03-16T06:37:35.914Z,0.80
2019-03-16T06:40:04.527Z,0.80
2019-03-16T06:42:32.759Z,0.80
2019-03-16T06:45:01.010Z,0.72
2019-03-16T06:47:29.246Z,0.60
2019-03-16T06:49:57.483Z,0.60
2019-03-16T06:52:25.709Z,0.93
2019-03-16T06:54:53.956Z,0.60
2019-03-16T06:57:22.195Z,0.90
2019-03-16T06:59:50.448Z,1.10
2019-03-16T07:02:18.667Z,1.27
2019-03-16T07:04:46.909Z,1.10
2019-03-16T07:07:15.160Z,1.00
2019-03-16T07:09:43.393Z,0.75
2019-03-16T07:12:11.638Z,1.10
2019-03-16T07:14:39.924Z,1.05
2019-03-16T07:17:08.213Z,1.37
2019-03-16T07:19:36.449Z,1.12
2019-03-16T07:22:04.692Z,1.07
2019-03-16T07:24:32.921Z,1.20
2019-03-16T07:27:01.190Z,1.00
2019-03-16T07:29:29.412Z,1.17
2019-03-16T07:31:57.637Z,1.62
2019-03-16T07:34:25.900Z,1.52
2019-03-16T07:36:54.169Z,1.47
2019-03-16T07:39:22.393Z,1.20
2019-03-16T07:41:50.623Z,1.10
2019-03-16T07:44:18.870Z,1.55
2019-03-16T07:46:47.100Z,1.42
2019-03-16T07:49:15.318Z,1.50
2019-03-16T07:51:43.645Z,3.45
2019-03-16T07:54:11.891Z,2.67
2019-03-16T07:56:40.135Z,2.15
2019-03-16T07:59:08.388Z,2.30
2019-03-16T08:01:36.620Z,3.30
2019-03-16T08:04:04.882Z,3.98
2019-03-16T08:06:33.572Z,2.92
2019-03-16T08:09:01.971Z,2.60
2019-03-16T08:11:30.262Z,1.75
2019-03-16T08:13:58.525Z,1.60
2019-03-16T08:16:26.761Z,2.33
2019-03-16T08:18:55.028Z,1.42
2019-03-16T08:21:23.274Z,1.72
2019-03-16T08:23:53.735Z,1.62
2019-03-16T08:26:21.459Z,1.82
2019-03-16T08:28:49.691Z,1.57
2019-03-16T08:31:17.937Z,1.40
2019-03-16T08:33:46.208Z,2.58
2019-03-16T08:36:14.453Z,1.10
2019-03-16T08:38:42.674Z,1.75
2019-03-16T08:41:10.929Z,1.37
2019-03-16T08:43:39.160Z,4.42
2019-03-16T08:46:07.398Z,2.42
2019-03-16T08:48:35.647Z,2.77
2019-03-16T08:51:03.893Z,2.87
2019-03-16T08:53:32.123Z,7.05
2019-03-16T08:56:00.380Z,4.17
2019-03-16T08:58:28.602Z,10.05
2019-03-16T09:00:56.846Z,1.70
2019-03-16T09:03:25.066Z,2.35
2019-03-16T09:05:53.323Z,4.75
2019-03-16T09:08:21.558Z,3.65
2019-03-16T09:10:49.801Z,2.08
2019-03-16T09:13:18.042Z,6.47
2019-03-16T09:15:46.283Z,3.08
2019-03-16T09:18:14.510Z,3.60
2019-03-16T09:20:42.754Z,8.58
2019-03-16T09:23:11.003Z,2.17
2019-03-16T09:25:39.248Z,1.90
2019-03-16T09:28:18.048Z,3.35
2019-03-16T09:30:37.467Z,1.55
2019-03-16T09:33:05.726Z,1.40
2019-03-16T09:35:33.953Z,1.32
2019-03-16T09:38:05.096Z,1.70
2019-03-16T09:40:32.164Z,1.62
2019-03-16T09:43:00.490Z,3.12
2019-03-16T09:45:28.831Z,3.58
2019-03-16T09:47:57.064Z,1.10
2019-03-16T09:50:25.327Z,2.60
2019-03-16T09:52:53.570Z,3.98
2019-03-16T09:55:21.808Z,1.70
2019-03-16T09:57:50.042Z,2.02
2019-03-16T10:00:18.455Z,2.40
2019-03-16T10:02:46.684Z,3.60
2019-03-16T10:05:14.928Z,2.08
2019-03-16T10:07:43.160Z,3.45
2019-03-16T10:10:12.867Z,2.00
2019-03-16T10:12:41.105Z,1.40
2019-03-16T10:15:11.575Z,1.70
2019-03-16T10:17:39.795Z,1.42
2019-03-16T10:20:12.247Z,1.70
2019-03-16T10:22:40.481Z,1.32
2019-03-16T10:25:09.113Z,1.92
2019-03-16T10:27:37.345Z,1.37
2019-03-16T10:30:08.839Z,1.77
2019-03-16T10:32:37.078Z,1.98
2019-03-16T10:35:26.374Z,2.30
2019-03-16T10:37:54.612Z,2.02
2019-03-16T10:40:22.855Z,1.40
2019-03-16T10:42:51.113Z,2.45
2019-03-16T10:45:19.365Z,1.55
2019-03-16T10:47:47.612Z,1.75
2019-03-16T10:50:15.873Z,1.50
2019-03-16T10:52:44.124Z,1.77
2019-03-16T10:55:12.370Z,2.12
2019-03-16T10:57:40.622Z,1.55
2019-03-16T11:00:13.822Z,1.25
2019-03-16T11:02:42.067Z,2.02
2019-03-16T11:05:10.296Z,2.10
2019-03-16T11:07:38.553Z,5.65
2019-03-16T11:10:09.461Z,4.10
2019-03-16T11:12:37.693Z,8.85
2019-03-16T11:15:08.785Z,2.15
2019-03-16T11:17:37.027Z,3.37
2019-03-16T11:20:08.541Z,2.72
2019-03-16T11:22:36.892Z,4.08
2019-03-16T11:25:06.679Z,1.82
2019-03-16T11:27:34.895Z,1.90
2019-03-16T11:30:03.163Z,2.33
2019-03-16T11:32:31.389Z,1.60
2019-03-16T11:34:59.656Z,2.17
2019-03-16T11:37:27.884Z,1.65
2019-03-16T11:39:56.118Z,1.47
2019-03-16T11:42:24.345Z,3.83
2019-03-16T11:44:52.677Z,2.87
2019-03-16T11:47:20.947Z,5.37
2019-03-16T11:49:49.161Z,5.00
2019-03-16T11:52:17.420Z,8.05
2019-03-16T11:54:45.700Z,2.67
2019-03-16T11:57:13.922Z,5.80
2019-03-16T11:59:42.157Z,4.85
2019-03-16T12:02:10.419Z,4.45
2019-03-16T12:04:38.662Z,1.27
2019-03-16T12:07:06.890Z,1.25
2019-03-16T12:09:35.144Z,1.37
2019-03-16T12:12:03.441Z,4.42
2019-03-16T12:14:31.678Z,1.60
2019-03-16T12:16:59.928Z,1.15
2019-03-16T12:19:28.171Z,2.20
2019-03-16T12:21:56.432Z,1.15
2019-03-16T12:24:24.690Z,1.32
2019-03-16T12:26:52.948Z,2.00
2019-03-16T12:29:33.079Z,1.40
2019-03-16T12:31:51.190Z,0.93
2019-03-16T12:34:19.429Z,0.93
2019-03-16T12:36:47.652Z,0.98
2019-03-16T12:39:15.907Z,0.90
2019-03-16T12:41:44.158Z,0.90
2019-03-16T12:44:12.371Z,0.82
2019-03-16T12:46:40.627Z,0.80
2019-03-16T12:49:08.838Z,0.98
2019-03-16T12:51:37.113Z,0.98
2019-03-16T12:54:05.418Z,1.20
2019-03-16T12:56:33.647Z,1.30
2019-03-16T12:59:10.576Z,0.70
2019-03-16T13:01:31.860Z,1.32
2019-03-16T13:04:00.112Z,3.45
2019-03-16T13:06:28.335Z,1.90
2019-03-16T13:08:56.602Z,3.58
2019-03-16T13:11:24.868Z,8.60
2019-03-16T13:13:53.106Z,2.65
2019-03-16T13:16:21.344Z,2.45
2019-03-16T13:18:49.580Z,3.27
2019-03-16T13:21:17.833Z,2.50
2019-03-16T13:23:46.136Z,3.55
2019-03-16T13:26:14.394Z,2.60
2019-03-16T13:28:42.625Z,1.72
2019-03-16T13:31:13.531Z,2.02
2019-03-16T13:33:41.764Z,2.45
2019-03-16T13:36:10.012Z,1.98
2019-03-16T13:38:38.260Z,0.90
2019-03-16T13:41:06.486Z,2.40
2019-03-16T13:43:34.924Z,2.22
2019-03-16T13:46:03.158Z,2.77
2019-03-16T13:48:31.479Z,1.50
2019-03-16T13:50:59.698Z,2.15
2019-03-16T13:53:27.973Z,2.40
2019-03-16T13:55:56.581Z,1.40
2019-03-16T13:58:24.835Z,1.65
2019-03-16T14:00:53.074Z,1.12
2019-03-16T14:03:21.304Z,1.00
2019-03-16T14:05:49.570Z,0.90
2019-03-16T14:08:17.801Z,0.75
2019-03-16T14:10:46.043Z,1.00
2019-03-16T14:13:14.559Z,0.75
2019-03-16T14:15:42.803Z,2.10
2019-03-16T14:18:11.053Z,1.17
2019-03-16T14:20:39.337Z,0.95
2019-03-16T14:23:07.607Z,1.52
2019-03-16T14:25:36.036Z,2.98
2019-03-16T14:28:04.260Z,2.45
2019-03-16T14:30:40.933Z,3.90
2019-03-16T14:33:02.484Z,2.42
2019-03-16T14:35:30.729Z,5.78
2019-03-16T14:37:58.955Z,1.15
2019-03-16T14:40:27.319Z,1.25
2019-03-16T14:42:55.616Z,1.87
2019-03-16T14:45:24.155Z,2.30
2019-03-16T14:47:52.547Z,4.30
2019-03-16T14:50:25.058Z,5.55
2019-03-16T14:52:53.281Z,2.87
2019-03-16T14:55:21.542Z,3.37
2019-03-16T14:57:49.769Z,4.45
2019-03-16T15:00:18.737Z,1.75
2019-03-16T15:02:47.045Z,6.12
2019-03-16T15:05:15.325Z,4.08
2019-03-16T15:07:43.575Z,3.30
2019-03-16T15:10:15.956Z,4.05
2019-03-16T15:12:44.219Z,1.90
2019-03-16T15:15:16.625Z,2.80
2019-03-16T15:17:44.866Z,1.00
2019-03-16T15:20:13.131Z,0.65
2019-03-16T15:22:41.382Z,0.72
2019-03-16T15:25:11.354Z,0.68
2019-03-16T15:27:39.808Z,0.75
2019-03-16T15:30:11.298Z,0.70
2019-03-16T15:32:39.599Z,0.70
2019-03-16T15:35:09.268Z,0.80
2019-03-16T15:37:37.493Z,1.02
2019-03-16T15:40:10.699Z,0.70
2019-03-16T15:42:38.943Z,0.70
2019-03-16T15:45:19.400Z,0.70
2019-03-16T15:47:47.646Z,0.90
2019-03-16T15:50:15.895Z,0.60
2019-03-16T15:52:44.145Z,0.88
2019-03-16T15:55:12.373Z,1.00
2019-03-16T15:57:42.625Z,0.80
2019-03-16T16:00:17.715Z,0.90
2019-03-16T16:02:46.035Z,0.93
2019-03-16T16:05:14.259Z,1.15
2019-03-16T16:07:42.515Z,0.80
2019-03-16T16:10:15.611Z,0.55
2019-03-16T16:12:43.855Z,4.47
2019-03-16T16:15:12.161Z,8.33
2019-03-16T16:17:40.426Z,8.25
2019-03-16T16:20:18.517Z,7.35
2019-03-16T16:22:47.055Z,5.92
2019-03-16T16:25:15.578Z,1.70
2019-03-16T16:27:43.821Z,1.70
2019-03-16T16:30:22.714Z,1.57
2019-03-16T16:32:50.972Z,5.05
2019-03-16T16:35:19.195Z,10.98
2019-03-16T16:37:47.449Z,3.35
2019-03-16T16:40:21.820Z,4.42
2019-03-16T16:42:50.081Z,6.72
2019-03-16T16:45:18.325Z,6.35
2019-03-16T16:47:46.575Z,9.25
2019-03-16T16:50:17.275Z,6.87
2019-03-16T16:52:45.519Z,5.25
2019-03-16T16:55:13.771Z,6.03
2019-03-16T16:57:42.026Z,13.78
2019-03-16T17:00:12.993Z,7.37
2019-03-16T17:02:41.255Z,9.38
2019-03-16T17:05:09.485Z,8.43
2019-03-16T17:07:37.731Z,3.80
2019-03-16T17:10:15.676Z,3.10
2019-03-16T17:12:44.284Z,1.30
2019-03-16T17:15:15.046Z,2.10
2019-03-16T17:17:43.301Z,4.33
2019-03-16T17:20:15.093Z,1.67
2019-03-16T17:22:43.338Z,1.55
2019-03-16T17:25:14.132Z,1.10
2019-03-16T17:27:42.387Z,1.02
2019-03-16T17:30:19.060Z,1.10
2019-03-16T17:32:47.312Z,1.25
2019-03-16T17:35:15.540Z,1.30
2019-03-16T17:37:43.924Z,1.22
2019-03-16T17:40:13.753Z,1.52
2019-03-16T17:42:41.991Z,1.30
2019-03-16T17:45:13.806Z,1.40
2019-03-16T17:47:42.048Z,1.47
2019-03-16T17:50:12.306Z,1.80
2019-03-16T17:52:40.533Z,1.45
2019-03-16T17:55:13.928Z,2.80
2019-03-16T17:57:45.079Z,4.50
2019-03-16T18:00:19.816Z,5.55
2019-03-16T18:02:52.310Z,4.08
2019-03-16T18:05:18.033Z,3.10
2019-03-16T18:07:46.284Z,2.20
2019-03-16T18:10:14.974Z,1.90
2019-03-16T18:12:43.218Z,1.85
2019-03-16T18:15:16.704Z,1.95
2019-03-16T18:17:44.938Z,2.55
2019-03-16T18:20:17.121Z,2.20
2019-03-16T18:22:45.551Z,3.05
2019-03-16T18:25:14.144Z,2.02
2019-03-16T18:27:42.384Z,2.17
2019-03-16T18:30:15.990Z,2.35
2019-03-16T18:32:44.236Z,2.25
2019-03-16T18:35:12.474Z,2.05
2019-03-16T18:37:40.718Z,1.85
2019-03-16T18:40:12.982Z,1.75
2019-03-16T18:42:41.222Z,1.87
2019-03-16T18:45:18.385Z,2.00
2019-03-16T18:47:46.621Z,1.95
2019-03-16T18:50:14.886Z,2.02
2019-03-16T18:52:43.180Z,1.98
2019-03-16T18:55:12.790Z,2.77
2019-03-16T18:57:41.127Z,2.75
2019-03-16T19:00:11.918Z,2.47
2019-03-16T19:02:40.182Z,3.65
2019-03-16T19:05:09.179Z,3.35
2019-03-16T19:07:37.414Z,3.92
2019-03-16T19:10:13.800Z,7.28
2019-03-16T19:12:42.051Z,4.37
2019-03-16T19:15:12.532Z,5.22
2019-03-16T19:17:40.782Z,4.72
2019-03-16T19:20:14.006Z,4.03
2019-03-16T19:22:42.256Z,3.90
2019-03-16T19:25:13.352Z,3.58
2019-03-16T19:27:41.592Z,5.62
2019-03-16T19:30:14.379Z,8.60
2019-03-16T19:32:43.043Z,4.50
2019-03-16T19:35:11.293Z,3.40
2019-03-16T19:37:39.506Z,3.90
2019-03-16T19:40:21.809Z,3.65
2019-03-16T19:42:50.023Z,4.00
2019-03-16T19:45:18.282Z,3.75
2019-03-16T19:47:46.497Z,4.20
2019-03-16T19:50:15.732Z,4.97
2019-03-16T19:52:43.995Z,5.25
2019-03-16T19:55:13.063Z,4.85
2019-03-16T19:57:41.394Z,5.70
2019-03-16T20:00:12.260Z,2.87
2019-03-16T20:02:49.813Z,2.50
2019-03-16T20:05:11.405Z,2.00
2019-03-16T20:07:39.638Z,2.00
2019-03-16T20:10:11.316Z,2.37
2019-03-16T20:12:39.540Z,2.37
2019-03-16T20:15:10.109Z,2.90
2019-03-16T20:17:38.414Z,3.52
2019-03-16T20:20:12.912Z,3.72
2019-03-16T20:22:41.164Z,2.85
2019-03-16T20:25:09.634Z,3.80
2019-03-16T20:27:37.887Z,17.20
2019-03-16T20:30:11.047Z,18.98
2019-03-16T20:32:39.281Z,8.40
2019-03-16T20:35:08.739Z,8.70
2019-03-16T20:37:37.002Z,10.58
2019-03-16T20:40:08.510Z,7.55
2019-03-16T20:42:36.797Z,7.00
2019-03-16T20:45:06.601Z,5.40
2019-03-16T20:47:34.917Z,5.00
2019-03-16T20:50:04.211Z,4.47
2019-03-16T20:52:32.508Z,4.70
2019-03-16T20:55:00.951Z,4.20
2019-03-16T20:57:29.180Z,4.75
2019-03-16T20:59:57.751Z,4.70
2019-03-16T21:02:26.042Z,4.55
2019-03-16T21:04:54.293Z,4.55
2019-03-16T21:07:22.562Z,4.17
2019-03-16T21:09:50.856Z,4.78
2019-03-16T21:12:19.111Z,4.00
2019-03-16T21:14:47.372Z,3.50
2019-03-16T21:17:15.630Z,2.15
2019-03-16T21:19:43.861Z,2.10
2019-03-16T21:22:12.102Z,2.10
2019-03-16T21:24:40.339Z,2.33
2019-03-16T21:27:08.697Z,2.52
2019-03-16T21:29:36.997Z,2.40
2019-03-16T21:32:05.247Z,2.30
2019-03-16T21:34:33.612Z,2.50
2019-03-16T21:37:02.027Z,2.33
2019-03-16T21:39:30.290Z,2.50
2019-03-16T21:41:58.652Z,2.40
2019-03-16T21:44:26.904Z,3.45
2019-03-16T21:46:55.213Z,3.52
2019-03-16T21:49:23.431Z,3.02
2019-03-16T21:51:51.660Z,2.83
2019-03-16T21:54:19.909Z,2.30
2019-03-16T21:56:48.131Z,2.27
2019-03-16T21:59:16.483Z,2.42
2019-03-16T22:01:44.720Z,2.33
2019-03-16T22:04:12.940Z,1.90
2019-03-16T22:06:41.343Z,2.52
2019-03-16T22:09:09.670Z,2.22
2019-03-16T22:11:38.047Z,2.02
2019-03-16T22:14:06.281Z,1.77
2019-03-16T22:16:34.533Z,1.75
2019-03-16T22:19:02.775Z,1.52
2019-03-16T22:21:31.013Z,1.60
2019-03-16T22:23:59.368Z,1.72
2019-03-16T22:26:27.602Z,1.17
2019-03-16T22:28:55.985Z,1.30
2019-03-16T22:31:24.284Z,1.30
2019-03-16T22:33:54.653Z,1.25
2019-03-16T22:36:22.799Z,1.35
2019-03-16T22:38:51.100Z,1.50
2019-03-16T22:41:19.384Z,1.25
2019-03-16T22:43:47.693Z,1.65
2019-03-16T22:46:15.998Z,2.05
2019-03-16T22:48:44.243Z,1.07
2019-03-16T22:51:12.599Z,1.30
2019-03-16T22:53:40.834Z,1.22
2019-03-16T22:56:09.147Z,1.30
2019-03-16T22:58:37.534Z,1.20
2019-03-16T23:01:06.225Z,1.27
2019-03-16T23:03:34.509Z,1.20
2019-03-16T23:06:02.776Z,1.20
2019-03-16T23:08:31.062Z,1.50
2019-03-16T23:10:59.332Z,1.40
2019-03-16T23:13:27.582Z,1.07
2019-03-16T23:15:55.849Z,1.40
2019-03-16T23:18:24.097Z,1.25
2019-03-16T23:20:52.333Z,1.10
2019-03-16T23:23:20.652Z,1.30
2019-03-16T23:25:48.906Z,1.37
2019-03-16T23:28:17.202Z,1.12
2019-03-16T23:30:45.701Z,1.27
2019-03-16T23:33:13.924Z,1.15
2019-03-16T23:35:42.278Z,0.88
2019-03-16T23:38:10.520Z,1.15
2019-03-16T23:40:38.752Z,1.10
2019-03-16T23:43:07.129Z,1.17
2019-03-16T23:45:35.391Z,1.10
2019-03-16T23:48:03.712Z,1.22
2019-03-16T23:50:31.948Z,1.07
2019-03-16T23:53:00.182Z,0.98
2019-03-16T23:55:28.479Z,1.00
2019-03-16T23:57:56.805Z,1.10
